^^
Station Historical Data
Daily Summary for March 13, 2018 Units:  English    Metric   Both
« Previous Day
Next Day »
Daily Weekly Monthly Yearly Custom
  High: Low: Average:
Temperature: TemperatureF °F 28.1 °F 39.9 °F
Dew Point: DewpointF °F 16.5 °F 20 °F
Humidity: Humidity% 26% 47%
Wind Speed: WindSpeedMPHmph 0.0mph 4.4mph
Wind Gust: WindSpeedGustMPHmph - -
Wind- - SSW
Pressure: PressureIn in 30.28 in -
Precipitation: 0.00 in    
Historical Graphs
 
 
Tabular Data for March 13, 2018
Time Temperature Dew Point Pressure Wind Wind Speed Wind Gust Humidity Rainfall Rate (Hourly)
TemperatureF °F DewpointF °F PressureIn in Calm     Humidity% HourlyPrecipIn in
00:03 39.7 °F 21.6 °F 30.30 in North 4.0 mph 4.0 mph 48% 0.00 in
00:08 39.7 °F 21.6 °F 30.30 in North 3.5 mph 3.5 mph 48% 0.00 in
00:13 39.7 °F 21.6 °F 30.30 in North 5.8 mph 5.8 mph 48% 0.00 in
00:18 39.7 °F 21.6 °F 30.30 in North 3.5 mph 3.5 mph 48% 0.00 in
00:24 39.7 °F 21.1 °F 30.30 in North 4.0 mph 4.0 mph 47% 0.00 in
00:29 39.7 °F 21.1 °F 30.30 in North 3.5 mph 3.5 mph 47% 0.00 in
00:34 39.6 °F 21.0 °F 30.30 in North 3.5 mph 3.5 mph 47% 0.00 in
00:39 39.7 °F 20.6 °F 30.30 in NNW 8.1 mph 8.1 mph 46% 0.00 in
00:44 39.7 °F 21.1 °F 30.30 in NNE 4.0 mph 4.0 mph 47% 0.00 in
00:50 39.6 °F 21.0 °F 30.30 in NNE 4.0 mph 4.0 mph 47% 0.00 in
00:55 39.5 °F 20.9 °F 30.30 in ENE 4.6 mph 4.6 mph 47% 0.00 in
01:00 39.3 °F 21.2 °F 30.30 in NNE 3.5 mph 4.0 mph 48% 0.00 in
01:05 39.1 °F 21.0 °F 30.30 in North 4.0 mph 4.0 mph 48% 0.00 in
01:10 39.1 °F 21.0 °F 30.30 in NNE 4.6 mph 4.6 mph 48% 0.00 in
01:15 39.1 °F 21.0 °F 30.30 in NNW 5.0 mph 5.0 mph 48% 0.00 in
01:20 39.0 °F 21.4 °F 30.30 in NNE 3.5 mph 3.5 mph 49% 0.00 in
01:25 38.9 °F 20.9 °F 30.30 in NNE 6.9 mph 6.9 mph 48% 0.00 in
01:30 38.9 °F 21.3 °F 30.30 in North 3.5 mph 3.6 mph 49% 0.00 in
01:35 38.9 °F 21.3 °F 30.30 in NE 6.9 mph 6.9 mph 49% 0.00 in
01:40 38.8 °F 21.3 °F 30.30 in North 4.6 mph 4.6 mph 49% 0.00 in
01:45 38.8 °F 21.7 °F 30.30 in NNW 5.8 mph 5.8 mph 50% 0.00 in
01:51 38.6 °F 21.5 °F 30.31 in North 3.5 mph 3.5 mph 50% 0.00 in
01:56 38.4 °F 21.4 °F 30.31 in North 8.1 mph 8.1 mph 50% 0.00 in
02:01 38.3 °F 21.7 °F 30.31 in North 4.0 mph 4.0 mph 51% 0.00 in
02:06 38.2 °F 21.6 °F 30.31 in North 4.6 mph 4.6 mph 51% 0.00 in
02:12 37.9 °F 21.8 °F 30.31 in NNW 2.3 mph 2.4 mph 52% 0.00 in
02:17 37.7 °F 21.6 °F 30.31 in North 3.5 mph 3.5 mph 52% 0.00 in
02:22 37.4 °F 21.8 °F 30.31 in North 2.3 mph 2.3 mph 53% 0.00 in
02:27 37.1 °F 22.0 °F 30.31 in North 2.3 mph 2.3 mph 54% 0.00 in
02:32 36.8 °F 21.7 °F 30.31 in North 1.2 mph 1.2 mph 54% 0.00 in
02:37 36.5 °F 21.8 °F 30.31 in North 1.2 mph 1.2 mph 55% 0.00 in
02:42 36.2 °F 21.6 °F 30.31 in North 2.3 mph 2.3 mph 55% 0.00 in
02:47 36.0 °F 21.8 °F 30.31 in North 2.3 mph 2.3 mph 56% 0.00 in
02:52 35.8 °F 22.0 °F 30.31 in NNW 2.3 mph 2.3 mph 57% 0.00 in
02:57 35.7 °F 21.9 °F 30.31 in North 2.3 mph 2.3 mph 57% 0.00 in
03:02 35.6 °F 22.3 °F 30.31 in North 2.3 mph 2.3 mph 58% 0.00 in
03:08 35.6 °F 21.9 °F 30.31 in NNW 3.5 mph 3.5 mph 57% 0.00 in
03:13 35.6 °F 22.3 °F 30.31 in NNE 3.5 mph 3.5 mph 58% 0.00 in
03:18 35.5 °F 22.2 °F 30.30 in North 3.5 mph 3.5 mph 58% 0.00 in
03:23 35.3 °F 22.0 °F 30.30 in North 3.5 mph 3.5 mph 58% 0.00 in
03:28 35.2 °F 22.3 °F 30.30 in North 4.6 mph 4.6 mph 59% 0.00 in
03:34 35.2 °F 22.3 °F 30.30 in North 5.0 mph 5.0 mph 59% 0.00 in
03:39 35.2 °F 22.3 °F 30.30 in NNE 3.5 mph 4.0 mph 59% 0.00 in
03:44 35.2 °F 22.3 °F 30.30 in NNE 3.5 mph 3.5 mph 59% 0.00 in
03:49 35.2 °F 22.3 °F 30.30 in NNE 3.5 mph 3.5 mph 59% 0.00 in
03:54 35.1 °F 22.2 °F 30.30 in NNE 3.5 mph 3.5 mph 59% 0.00 in
03:59 35.1 °F 22.6 °F 30.30 in North 5.8 mph 5.8 mph 60% 0.00 in
04:04 35.0 °F 22.5 °F 30.30 in North 4.0 mph 4.0 mph 60% 0.00 in
04:09 34.8 °F 22.3 °F 30.30 in NNW 4.0 mph 4.0 mph 60% 0.00 in
04:14 34.8 °F 22.3 °F 30.30 in North 4.6 mph 4.6 mph 60% 0.00 in
04:20 34.5 °F 22.0 °F 30.30 in NNE 4.6 mph 4.6 mph 60% 0.00 in
04:25 34.3 °F 22.2 °F 30.30 in NNE 4.6 mph 4.6 mph 61% 0.00 in
04:30 34.2 °F 22.1 °F 30.30 in NNE 5.0 mph 5.0 mph 61% 0.00 in
04:35 34.0 °F 22.0 °F 30.30 in NE 4.0 mph 4.0 mph 61% 0.00 in
04:40 33.8 °F 22.1 °F 30.30 in NNE 3.5 mph 3.5 mph 62% 0.00 in
04:45 33.7 °F 22.1 °F 30.30 in North 3.5 mph 3.5 mph 62% 0.00 in
04:50 33.6 °F 22.0 °F 30.30 in North 3.5 mph 3.5 mph 62% 0.00 in
04:55 33.6 °F 22.0 °F 30.30 in NNE 3.5 mph 3.5 mph 62% 0.00 in
05:00 33.5 °F 21.9 °F 30.30 in North 2.3 mph 2.3 mph 62% 0.00 in
05:05 33.4 °F 21.8 °F 30.31 in North 2.3 mph 2.3 mph 62% 0.00 in
05:10 33.4 °F 21.8 °F 30.31 in NNW 2.3 mph 2.3 mph 62% 0.00 in
05:16 33.3 °F 21.7 °F 30.31 in North 3.5 mph 3.5 mph 62% 0.00 in
05:21 33.2 °F 21.2 °F 30.31 in North 3.5 mph 3.5 mph 61% 0.00 in
05:26 33.1 °F 21.1 °F 30.31 in North 3.5 mph 3.5 mph 61% 0.00 in
05:31 33.0 °F 21.0 °F 30.31 in NNE 4.6 mph 4.6 mph 61% 0.00 in
05:36 32.9 °F 20.9 °F 30.31 in NNE 3.5 mph 3.5 mph 61% 0.00 in
05:42 32.7 °F 20.7 °F 30.31 in NNW 3.0 mph 3.0 mph 61% 0.00 in
05:47 32.6 °F 20.6 °F 30.31 in NNE 3.5 mph 3.5 mph 61% 0.00 in
05:52 32.4 °F 20.8 °F 30.32 in NNE 1.2 mph 1.2 mph 62% 0.00 in
05:57 32.2 °F 21.0 °F 30.32 in Calm     63% 0.00 in
06:02 31.8 °F 20.6 °F 30.32 in Calm     63% 0.00 in
06:07 31.4 °F 20.6 °F 30.32 in Calm     64% 0.00 in
06:12 31.0 °F 21.0 °F 30.32 in NNE 1.2 mph 1.2 mph 66% 0.00 in
06:17 30.6 °F 20.9 °F 30.32 in NNE 1.2 mph 1.2 mph 67% 0.00 in
06:22 30.3 °F 21.0 °F 30.32 in NNE 1.2 mph 1.2 mph 68% 0.00 in
06:27 30.0 °F 21.1 °F 30.32 in NNE 2.3 mph 2.3 mph 69% 0.00 in
06:32 29.8 °F 21.2 °F 30.32 in NNE 1.2 mph   70% 0.00 in
06:37 29.8 °F 21.5 °F 30.33 in North 2.3 mph 2.3 mph 71% 0.00 in
06:42 29.8 °F 21.2 °F 30.33 in North 2.3 mph 2.3 mph 70% 0.00 in
06:48 29.7 °F 21.4 °F 30.33 in North 2.3 mph 2.3 mph 71% 0.00 in
06:53 29.7 °F 21.1 °F 30.33 in North 1.2 mph 1.2 mph 70% 0.00 in
06:58 29.6 °F 21.0 °F 30.33 in North 1.2 mph 1.2 mph 70% 0.00 in
07:03 29.4 °F 20.8 °F 30.34 in North 2.3 mph 2.3 mph 70% 0.00 in
07:08 29.3 °F 21.1 °F 30.34 in North 1.2 mph 1.2 mph 71% 0.00 in
07:13 29.2 °F 21.0 °F 30.34 in North 1.2 mph 1.2 mph 71% 0.00 in
07:19 29.0 °F 21.1 °F 30.34 in North 1.2 mph   72% 0.00 in
07:24 28.8 °F 20.9 °F 30.34 in North 1.2 mph   72% 0.00 in
07:29 28.6 °F 20.7 °F 30.34 in North 1.2 mph 1.2 mph 72% 0.00 in
07:34 28.4 °F 20.5 °F 30.35 in North 2.3 mph 2.3 mph 72% 0.00 in
07:40 28.3 °F 20.4 °F 30.35 in North 1.2 mph 1.2 mph 72% 0.00 in
07:45 28.2 °F 20.3 °F 30.35 in NNW 2.3 mph 2.3 mph 72% 0.00 in
07:50 28.1 °F 20.2 °F 30.35 in NNW 1.2 mph 1.2 mph 72% 0.00 in
07:55 28.3 °F 20.4 °F 30.35 in NNW 2.3 mph 2.3 mph 72% 0.00 in
08:00 28.5 °F 20.6 °F 30.35 in Calm     72% 0.00 in
08:05 28.8 °F 20.9 °F 30.35 in Calm     72% 0.00 in
08:10 29.2 °F 21.0 °F 30.35 in WNW 3.5 mph 3.5 mph 71% 0.00 in
08:21 29.8 °F 21.2 °F 30.35 in WNW 4.6 mph 4.6 mph 70% 0.00 in
08:26 30.2 °F 21.6 °F 30.35 in NW 2.3 mph 2.3 mph 70% 0.00 in
08:31 30.6 °F 22.0 °F 30.35 in West 3.5 mph 3.5 mph 70% 0.00 in
08:36 31.0 °F 22.4 °F 30.36 in NW 2.3 mph 2.3 mph 70% 0.00 in
08:41 31.2 °F 22.5 °F 30.36 in NNE 3.0 mph 3.0 mph 70% 0.00 in
08:46 31.4 °F 22.7 °F 30.36 in North 2.3 mph 2.3 mph 70% 0.00 in
08:51 31.4 °F 22.7 °F 30.37 in NNW 5.0 mph 5.0 mph 70% 0.00 in
08:56 31.3 °F 23.0 °F 30.37 in NNE 3.5 mph 3.5 mph 71% 0.00 in
09:01 31.4 °F 23.1 °F 30.37 in North 6.9 mph 6.9 mph 71% 0.00 in
09:07 31.6 °F 23.3 °F 30.38 in NW 4.6 mph 4.6 mph 71% 0.00 in
09:12 31.9 °F 23.2 °F 30.38 in NNW 3.5 mph 3.5 mph 70% 0.00 in
09:17 32.4 °F 23.4 °F 30.38 in NE 5.0 mph 5.0 mph 69% 0.00 in
09:22 32.5 °F 23.5 °F 30.38 in NE 8.1 mph 8.1 mph 69% 0.00 in
09:28 32.9 °F 23.1 °F 30.38 in WSW 4.6 mph 4.6 mph 67% 0.00 in
09:33 33.3 °F 23.9 °F 30.38 in NNE 3.5 mph 3.5 mph 68% 0.00 in
09:38 33.7 °F 23.5 °F 30.38 in NW 3.5 mph 3.5 mph 66% 0.00 in
09:43 34.1 °F 23.6 °F 30.38 in NNE 5.8 mph 5.8 mph 65% 0.00 in
09:49 34.3 °F 23.7 °F 30.38 in North 5.8 mph 5.8 mph 65% 0.00 in
09:54 34.5 °F 23.6 °F 30.38 in NNE 8.1 mph 8.1 mph 64% 0.00 in
09:59 34.6 °F 23.7 °F 30.38 in NNW 6.9 mph 6.9 mph 64% 0.00 in
10:05 34.7 °F 23.0 °F 30.38 in NNE 8.1 mph 8.1 mph 62% 0.00 in
10:10 34.7 °F 23.4 °F 30.39 in NNE 3.5 mph 3.5 mph 63% 0.00 in
10:16 35.2 °F 23.1 °F 30.38 in NNW 8.1 mph 8.1 mph 61% 0.00 in
10:21 35.1 °F 22.6 °F 30.38 in NNE 6.9 mph 6.9 mph 60% 0.00 in
10:26 35.3 °F 23.2 °F 30.38 in NE 8.1 mph 8.1 mph 61% 0.00 in
10:31 35.6 °F 23.1 °F 30.38 in NW 8.1 mph 8.1 mph 60% 0.00 in
10:36 35.9 °F 23.0 °F 30.38 in NNE 9.2 mph 9.2 mph 59% 0.00 in
10:41 35.9 °F 23.0 °F 30.38 in NNE 10.4 mph 10.4 mph 59% 0.00 in
10:47 36.3 °F 22.5 °F 30.39 in NW 6.9 mph 6.9 mph 57% 0.00 in
10:52 36.9 °F 22.7 °F 30.39 in North 4.6 mph 4.6 mph 56% 0.00 in
10:57 37.4 °F 23.1 °F 30.39 in NNW 8.0 mph 8.0 mph 56% 0.00 in
11:02 37.7 °F 22.5 °F 30.38 in West 3.5 mph 3.5 mph 54% 0.00 in
11:07 38.0 °F 21.9 °F 30.38 in NNW 5.8 mph 5.8 mph 52% 0.00 in
11:12 38.1 °F 22.0 °F 30.38 in NNE 5.8 mph 5.8 mph 52% 0.00 in
11:18 39.1 °F 22.9 °F 30.38 in NNE 3.5 mph 3.5 mph 52% 0.00 in
11:23 39.8 °F 23.1 °F 30.38 in NNW 3.5 mph 3.7 mph 51% 0.00 in
11:28 40.1 °F 23.4 °F 30.38 in East 9.2 mph 9.2 mph 51% 0.00 in
11:33 40.6 °F 21.9 °F 30.38 in NE 9.2 mph 9.2 mph 47% 0.00 in
11:38 40.0 °F 21.9 °F 30.38 in North 8.0 mph 8.0 mph 48% 0.00 in
11:43 40.6 °F 22.4 °F 30.38 in NNE 11.5 mph 11.5 mph 48% 0.00 in
11:49 40.6 °F 21.9 °F 30.38 in NNE 7.0 mph 7.0 mph 47% 0.00 in
11:54 40.8 °F 21.6 °F 30.38 in NW 6.0 mph 6.0 mph 46% 0.00 in
12:00 41.5 °F 21.7 °F 30.38 in NW 5.8 mph 5.8 mph 45% 0.00 in
12:05 41.5 °F 21.2 °F 30.38 in NNE 9.2 mph 9.2 mph 44% 0.00 in
12:10 41.5 °F 21.7 °F 30.38 in NE 5.8 mph 5.8 mph 45% 0.00 in
12:15 42.2 °F 21.3 °F 30.38 in NE 8.1 mph 8.1 mph 43% 0.00 in
12:20 42.0 °F 21.1 °F 30.38 in NNE 6.0 mph 6.0 mph 43% 0.00 in
12:25 42.3 °F 21.9 °F 30.37 in NW 8.1 mph 8.1 mph 44% 0.00 in
12:31 43.0 °F 22.0 °F 30.37 in NNE 6.9 mph 6.9 mph 43% 0.00 in
12:36 43.0 °F 21.4 °F 30.37 in North 9.2 mph 9.2 mph 42% 0.00 in
12:41 42.3 °F 20.8 °F 30.37 in West 3.5 mph 3.5 mph 42% 0.00 in
12:46 43.2 °F 22.2 °F 30.37 in NNE 8.1 mph 8.1 mph 43% 0.00 in
12:51 43.3 °F 21.1 °F 30.36 in NNW 4.6 mph 4.6 mph 41% 0.00 in
12:56 44.1 °F 21.3 °F 30.36 in WNW 5.8 mph 5.8 mph 40% 0.00 in
13:01 44.3 °F 20.9 °F 30.36 in North 6.9 mph 6.9 mph 39% 0.00 in
13:06 44.7 °F 20.6 °F 30.36 in North 4.0 mph 4.0 mph 38% 0.00 in
13:12 45.4 °F 20.6 °F 30.35 in NE 9.0 mph 9.0 mph 37% 0.00 in
13:17 44.5 °F 19.2 °F 30.35 in NNE 7.0 mph 7.4 mph 36% 0.00 in
13:22 43.7 °F 19.7 °F 30.35 in NW 10.4 mph 10.4 mph 38% 0.00 in
13:27 44.3 °F 20.3 °F 30.35 in North 11.5 mph 11.5 mph 38% 0.00 in
13:32 44.3 °F 20.3 °F 30.35 in West 9.2 mph 9.2 mph 38% 0.00 in
13:37 45.8 °F 20.3 °F 30.35 in NNE 3.5 mph 3.5 mph 36% 0.00 in
13:42 46.5 °F 20.3 °F 30.35 in NW 6.9 mph 6.9 mph 35% 0.00 in
13:48 46.7 °F 21.1 °F 30.34 in West 3.5 mph 3.5 mph 36% 0.00 in
13:53 47.4 °F 21.7 °F 30.34 in WNW 3.5 mph 3.5 mph 36% 0.00 in
13:58 47.7 °F 20.0 °F 30.34 in North 6.9 mph 6.9 mph 33% 0.00 in
14:04 47.2 °F 19.5 °F 30.33 in NNE 8.1 mph 8.1 mph 33% 0.00 in
14:09 47.9 °F 20.1 °F 30.33 in NNE 5.8 mph 5.8 mph 33% 0.00 in
14:14 47.6 °F 19.2 °F 30.33 in NNW 8.1 mph 8.1 mph 32% 0.00 in
14:19 47.4 °F 19.0 °F 30.32 in WSW 6.0 mph 6.0 mph 32% 0.00 in
14:24 47.9 °F 18.7 °F 30.32 in NNE 8.1 mph 8.1 mph 31% 0.00 in
14:29 47.6 °F 19.2 °F 30.32 in WSW 4.6 mph 4.6 mph 32% 0.00 in
14:34 47.5 °F 17.6 °F 30.32 in NE 10.4 mph 10.4 mph 30% 0.00 in
14:39 46.8 °F 18.5 °F 30.32 in NNE 8.1 mph 8.1 mph 32% 0.00 in
14:44 47.2 °F 18.8 °F 30.32 in North 8.1 mph 8.1 mph 32% 0.00 in
14:49 48.0 °F 20.2 °F 30.31 in West 9.2 mph 9.2 mph 33% 0.00 in
14:54 48.7 °F 19.4 °F 30.31 in North 4.6 mph 4.6 mph 31% 0.00 in
14:59 48.7 °F 19.4 °F 30.31 in WSW 4.0 mph 4.0 mph 31% 0.00 in
15:05 49.0 °F 19.6 °F 30.31 in NNE 5.8 mph 5.8 mph 31% 0.00 in
15:10 48.9 °F 19.5 °F 30.31 in NNE 5.8 mph 5.8 mph 31% 0.00 in
15:15 49.4 °F 19.2 °F 30.31 in North 8.1 mph 8.1 mph 30% 0.00 in
15:20 49.1 °F 19.0 °F 30.31 in NNW 5.8 mph 5.8 mph 30% 0.00 in
15:25 48.8 °F 18.7 °F 30.31 in NNW 8.0 mph 8.0 mph 30% 0.00 in
15:30 49.0 °F 20.4 °F 30.31 in WNW 4.0 mph 4.0 mph 32% 0.00 in
15:35 49.7 °F 19.5 °F 30.31 in NW 9.2 mph 9.2 mph 30% 0.00 in
15:40 50.2 °F 19.9 °F 30.30 in NNW 5.0 mph 5.0 mph 30% 0.00 in
15:45 50.1 °F 19.0 °F 30.30 in NNE 8.1 mph 8.1 mph 29% 0.00 in
15:50 49.9 °F 19.7 °F 30.30 in West 6.9 mph 6.9 mph 30% 0.00 in
15:56 50.3 °F 18.4 °F 30.30 in NNE 10.4 mph 10.4 mph 28% 0.00 in
16:01 49.7 °F 17.9 °F 30.30 in North 3.5 mph 3.5 mph 28% 0.00 in
16:06 50.1 °F 18.2 °F 30.30 in NW 4.6 mph 4.6 mph 28% 0.00 in
16:11 50.8 °F 18.8 °F 30.30 in North 9.0 mph 9.0 mph 28% 0.00 in
16:16 50.6 °F 19.5 °F 30.30 in NNW 5.8 mph 5.8 mph 29% 0.00 in
16:21 50.2 °F 17.5 °F 30.30 in ENE 11.5 mph 11.5 mph 27% 0.00 in
16:26 50.0 °F 18.1 °F 30.30 in WNW 8.0 mph 8.0 mph 28% 0.00 in
16:32 50.6 °F 17.8 °F 30.29 in North 3.5 mph 3.5 mph 27% 0.00 in
16:37 50.6 °F 18.6 °F 30.29 in NNE 8.1 mph 8.1 mph 28% 0.00 in
16:43 50.7 °F 18.7 °F 30.29 in SW 3.5 mph 3.5 mph 28% 0.00 in
16:48 51.1 °F 18.2 °F 30.29 in NW 9.2 mph 9.2 mph 27% 0.00 in
16:53 50.8 °F 17.1 °F 30.29 in NNW 9.2 mph 9.2 mph 26% 0.00 in
16:58 50.0 °F 17.3 °F 30.29 in NW 11.5 mph 11.5 mph 27% 0.00 in
17:03 49.9 °F 18.0 °F 30.29 in North 5.0 mph 7.0 mph 28% 0.00 in
17:08 50.2 °F 17.5 °F 30.29 in NNW 8.0 mph 8.0 mph 27% 0.00 in
17:14 50.0 °F 18.1 °F 30.29 in NNE 8.1 mph 8.1 mph 28% 0.00 in
17:19 49.9 °F 18.0 °F 30.29 in NNE 5.8 mph 5.8 mph 28% 0.00 in
17:24 50.1 °F 17.4 °F 30.29 in North 10.4 mph 10.4 mph 27% 0.00 in
17:29 49.9 °F 17.2 °F 30.29 in NNE 5.8 mph 5.8 mph 27% 0.00 in
17:35 49.7 °F 17.0 °F 30.29 in NNW 15.0 mph 15.0 mph 27% 0.00 in
17:40 49.9 °F 18.0 °F 30.29 in SW 5.8 mph 5.8 mph 28% 0.00 in
17:45 50.2 °F 18.3 °F 30.29 in West 4.6 mph 4.6 mph 28% 0.00 in
17:50 50.6 °F 17.8 °F 30.29 in NW 5.8 mph 5.8 mph 27% 0.00 in
17:55 50.6 °F 17.8 °F 30.29 in North 3.5 mph 3.5 mph 27% 0.00 in
18:00 49.8 °F 18.0 °F 30.29 in North 10.4 mph 10.4 mph 28% 0.00 in
18:06 49.5 °F 17.7 °F 30.29 in NNE 5.8 mph 5.8 mph 28% 0.00 in
18:11 49.9 °F 18.0 °F 30.29 in WNW 9.0 mph 9.0 mph 28% 0.00 in
18:16 49.8 °F 18.0 °F 30.29 in NNE 9.2 mph 9.2 mph 28% 0.00 in
18:21 49.4 °F 17.6 °F 30.29 in North 3.5 mph 3.5 mph 28% 0.00 in
18:27 49.3 °F 18.3 °F 30.28 in North 3.5 mph 3.5 mph 29% 0.00 in
18:32 49.3 °F 17.5 °F 30.29 in North 4.6 mph 4.6 mph 28% 0.00 in
18:37 49.0 °F 18.1 °F 30.29 in North 3.5 mph 3.5 mph 29% 0.00 in
18:42 48.9 °F 18.0 °F 30.29 in North 8.1 mph 8.1 mph 29% 0.00 in
18:47 48.7 °F 17.8 °F 30.29 in NNE 8.1 mph 8.1 mph 29% 0.00 in
18:52 48.6 °F 17.7 °F 30.29 in South 7.0 mph 7.0 mph 29% 0.00 in
18:57 48.3 °F 17.5 °F 30.29 in NNE 3.5 mph 3.5 mph 29% 0.00 in
19:02 48.1 °F 18.1 °F 30.29 in North 3.5 mph 3.5 mph 30% 0.00 in
19:08 47.8 °F 17.8 °F 30.29 in NW 9.2 mph 9.2 mph 30% 0.00 in
19:13 47.5 °F 17.6 °F 30.29 in NNE 4.0 mph 4.3 mph 30% 0.00 in
19:18 47.3 °F 17.4 °F 30.29 in NNE 8.1 mph 8.1 mph 30% 0.00 in
19:23 47.0 °F 17.9 °F 30.29 in North 3.5 mph 3.5 mph 31% 0.00 in
19:28 46.9 °F 17.8 °F 30.29 in North 4.0 mph 4.0 mph 31% 0.00 in
19:33 46.6 °F 17.5 °F 30.29 in North 4.6 mph 4.6 mph 31% 0.00 in
19:38 46.5 °F 17.4 °F 30.29 in North 4.6 mph 4.6 mph 31% 0.00 in
19:44 46.1 °F 17.1 °F 30.29 in North 3.5 mph 3.5 mph 31% 0.00 in
19:49 45.9 °F 16.9 °F 30.29 in NNE 4.6 mph 4.6 mph 31% 0.00 in
19:55 45.8 °F 17.6 °F 30.29 in NNE 3.5 mph 3.5 mph 32% 0.00 in
20:00 45.5 °F 17.3 °F 30.29 in North 3.5 mph 3.5 mph 32% 0.00 in
20:05 45.2 °F 17.0 °F 30.29 in North 2.3 mph 2.3 mph 32% 0.00 in
20:10 44.9 °F 17.5 °F 30.29 in NNW 2.3 mph 2.3 mph 33% 0.00 in
20:15 44.5 °F 17.1 °F 30.29 in North 3.0 mph 3.0 mph 33% 0.00 in
20:20 44.3 °F 17.0 °F 30.30 in North 2.0 mph 2.0 mph 33% 0.00 in
20:25 44.1 °F 17.5 °F 30.29 in North 1.2 mph   34% 0.00 in
20:30 43.9 °F 17.3 °F 30.30 in North 2.3 mph 2.3 mph 34% 0.00 in
20:36 43.7 °F 17.8 °F 30.30 in NNE 3.5 mph 3.5 mph 35% 0.00 in
20:41 43.5 °F 17.6 °F 30.30 in North 2.3 mph 2.3 mph 35% 0.00 in
20:46 43.3 °F 17.4 °F 30.30 in North 2.3 mph 2.3 mph 35% 0.00 in
20:51 43.2 °F 17.4 °F 30.30 in North 1.2 mph 1.2 mph 35% 0.00 in
20:56 42.9 °F 17.1 °F 30.30 in North 2.3 mph 2.3 mph 35% 0.00 in
21:01 42.7 °F 17.6 °F 30.30 in North 2.3 mph 2.3 mph 36% 0.00 in
21:07 42.5 °F 17.4 °F 30.30 in North 2.3 mph 2.3 mph 36% 0.00 in
21:12 42.4 °F 17.3 °F 30.30 in North 2.3 mph 2.3 mph 36% 0.00 in
21:18 42.3 °F 17.2 °F 30.30 in North 2.3 mph 2.3 mph 36% 0.00 in
21:23 42.1 °F 17.0 °F 30.30 in North 2.3 mph 2.3 mph 36% 0.00 in
21:28 41.9 °F 17.5 °F 30.30 in North 2.0 mph 2.0 mph 37% 0.00 in
21:33 41.6 °F 17.2 °F 30.30 in North 1.2 mph 1.2 mph 37% 0.00 in
21:38 41.3 °F 17.6 °F 30.30 in North 1.2 mph   38% 0.00 in
21:43 41.1 °F 17.4 °F 30.30 in North 2.3 mph 2.3 mph 38% 0.00 in
21:48 40.9 °F 17.2 °F 30.31 in North 2.3 mph 2.3 mph 38% 0.00 in
21:53 40.6 °F 17.5 °F 30.31 in North 1.2 mph 1.2 mph 39% 0.00 in
21:58 40.4 °F 17.4 °F 30.31 in Calm     39% 0.00 in
22:03 40.3 °F 17.3 °F 30.31 in North 2.3 mph 2.3 mph 39% 0.00 in
22:09 40.2 °F 17.2 °F 30.31 in North 1.2 mph 1.2 mph 39% 0.00 in
22:14 40.1 °F 17.1 °F 30.31 in Calm     39% 0.00 in
22:19 39.9 °F 17.5 °F 30.31 in Calm     40% 0.00 in
22:24 39.6 °F 17.8 °F 30.31 in Calm     41% 0.00 in
22:29 39.1 °F 17.4 °F 30.31 in Calm     41% 0.00 in
22:34 38.7 °F 17.5 °F 30.31 in Calm     42% 0.00 in
22:39 38.4 °F 17.3 °F 30.31 in Calm     42% 0.00 in
22:44 38.1 °F 17.5 °F 30.31 in Calm     43% 0.00 in
22:49 37.9 °F 17.4 °F 30.31 in Calm     43% 0.00 in
22:54 37.7 °F 17.7 °F 30.31 in Calm     44% 0.00 in
22:59 37.5 °F 17.5 °F 30.31 in Calm     44% 0.00 in
23:05 37.3 °F 16.8 °F 30.31 in Calm     43% 0.00 in
23:10 38.0 °F 16.9 °F 30.31 in North 1.2 mph 1.2 mph 42% 0.00 in
23:15 38.7 °F 17.0 °F 30.31 in North 2.3 mph 2.3 mph 41% 0.00 in
23:20 38.8 °F 17.1 °F 30.31 in North 2.0 mph 2.0 mph 41% 0.00 in
23:25 38.8 °F 17.1 °F 30.31 in North 1.2 mph 1.2 mph 41% 0.00 in
23:30 38.8 °F 17.1 °F 30.31 in North 1.2 mph 1.2 mph 41% 0.00 in
23:35 38.9 °F 16.6 °F 30.31 in North 2.3 mph 2.3 mph 40% 0.00 in
23:41 39.0 °F 16.7 °F 30.31 in North 1.2 mph 1.2 mph 40% 0.00 in
23:46 38.8 °F 16.5 °F 30.31 in North 3.5 mph 3.5 mph 40% 0.00 in
23:51 38.7 °F 17.0 °F 30.31 in North 2.3 mph 2.3 mph 41% 0.00 in
23:56 38.6 °F 16.9 °F 30.31 in North 2.3 mph 2.3 mph 41% 0.00 in
Live Lenexa Weather
Compliments of Weather Underground - 1.75 mb